Cologne Bonn Airport EDDK

Flugplatz Daten

Name: Cologne Bonn Airport

Ident: EDDK

Lat: 50,86589813

Long: 7,142739773

Platzhöhe: 302 ft

IataCode: CGN

City: Cologne

Metar

2022/08/14 06:50
EDDK 140650Z AUTO 12006KT 080V170 CAVOK 23/15 Q1010 NOSIG

Taf

2022/08/14 06:26
TAF EDDK 140500Z 1406/1512 11006KT CAVOK
BECMG 1503/1506 17005KT
BECMG 1507/1510 23007KT PROB30
TEMPO 1510/1512 SHRA BKN040CB
Gewünschte Webcam nicht vorhanden? Dann fügen Sie eine hinzu. Sie wird dann so schnell wie möglich freigeschaltet
Url: Title: